sensor_id;sensor_type;location;lat;lon;timestamp;temperature;humidity
15241;DHT22;7723;52.170;9.978;2024-03-08T00:01:21;0.80;99.90
15241;DHT22;7723;52.170;9.978;2024-03-08T00:03:49;0.80;99.90
15241;DHT22;7723;52.170;9.978;2024-03-08T00:06:19;0.70;99.90
15241;DHT22;7723;52.170;9.978;2024-03-08T00:08:46;0.70;99.90
15241;DHT22;7723;52.170;9.978;2024-03-08T00:11:13;0.70;99.90
15241;DHT22;7723;52.170;9.978;2024-03-08T00:13:40;0.70;99.90
15241;DHT22;7723;52.170;9.978;2024-03-08T00:16:07;0.60;99.90
15241;DHT22;7723;52.170;9.978;2024-03-08T00:18:35;0.60;99.90
15241;DHT22;7723;52.170;9.978;2024-03-08T00:21:02;0.60;99.90
15241;DHT22;7723;52.170;9.978;2024-03-08T00:23:31;0.50;99.90
15241;DHT22;7723;52.170;9.978;2024-03-08T00:25:59;0.40;99.90
15241;DHT22;7723;52.170;9.978;2024-03-08T00:28:26;0.30;99.90
15241;DHT22;7723;52.170;9.978;2024-03-08T00:30:53;0.20;99.90
15241;DHT22;7723;52.170;9.978;2024-03-08T00:33:20;0.20;99.90
15241;DHT22;7723;52.170;9.978;2024-03-08T00:35:47;0.10;99.90
15241;DHT22;7723;52.170;9.978;2024-03-08T00:38:14;0.10;99.90
15241;DHT22;7723;52.170;9.978;2024-03-08T00:40:42;0.00;99.90
15241;DHT22;7723;52.170;9.978;2024-03-08T00:43:09;0.10;99.90
15241;DHT22;7723;52.170;9.978;2024-03-08T00:45:35;0.00;99.90
15241;DHT22;7723;52.170;9.978;2024-03-08T00:48:03;0.00;99.90
15241;DHT22;7723;52.170;9.978;2024-03-08T00:50:31;0.00;99.90
15241;DHT22;7723;52.170;9.978;2024-03-08T00:52:59;-0.10;99.90
15241;DHT22;7723;52.170;9.978;2024-03-08T00:55:26;-0.10;99.90
15241;DHT22;7723;52.170;9.978;2024-03-08T00:57:56;-0.10;99.90
15241;DHT22;7723;52.170;9.978;2024-03-08T01:00:23;-0.10;99.90
15241;DHT22;7723;52.170;9.978;2024-03-08T01:02:51;-0.20;99.90
15241;DHT22;7723;52.170;9.978;2024-03-08T01:05:18;-0.20;99.90
15241;DHT22;7723;52.170;9.978;2024-03-08T01:07:45;-0.30;99.90
15241;DHT22;7723;52.170;9.978;2024-03-08T01:10:12;-0.30;99.90
15241;DHT22;7723;52.170;9.978;2024-03-08T01:12:39;-0.30;99.90
15241;DHT22;7723;52.170;9.978;2024-03-08T01:15:10;-0.30;99.90
15241;DHT22;7723;52.170;9.978;2024-03-08T01:17:37;-0.30;99.90
15241;DHT22;7723;52.170;9.978;2024-03-08T01:20:05;-0.30;99.90
15241;DHT22;7723;52.170;9.978;2024-03-08T01:22:33;-0.30;99.90
15241;DHT22;7723;52.170;9.978;2024-03-08T01:25:00;-0.20;99.90
15241;DHT22;7723;52.170;9.978;2024-03-08T01:27:27;-0.20;99.90
15241;DHT22;7723;52.170;9.978;2024-03-08T01:29:54;-0.20;99.90
15241;DHT22;7723;52.170;9.978;2024-03-08T01:32:23;-0.60;99.90
15241;DHT22;7723;52.170;9.978;2024-03-08T01:34:50;-0.30;99.90
15241;DHT22;7723;52.170;9.978;2024-03-08T01:37:17;-0.30;99.90
15241;DHT22;7723;52.170;9.978;2024-03-08T01:39:45;-0.50;99.90
15241;DHT22;7723;52.170;9.978;2024-03-08T01:42:13;-0.50;99.90
15241;DHT22;7723;52.170;9.978;2024-03-08T01:44:43;-0.70;99.90
15241;DHT22;7723;52.170;9.978;2024-03-08T01:47:11;-0.60;99.90
15241;DHT22;7723;52.170;9.978;2024-03-08T01:49:39;-0.60;99.90
15241;DHT22;7723;52.170;9.978;2024-03-08T01:52:06;-0.50;99.90
15241;DHT22;7723;52.170;9.978;2024-03-08T01:54:35;-0.60;99.90
15241;DHT22;7723;52.170;9.978;2024-03-08T01:57:02;-0.60;99.90
15241;DHT22;7723;52.170;9.978;2024-03-08T01:59:30;-0.60;99.90
15241;DHT22;7723;52.170;9.978;2024-03-08T02:02:01;-0.50;99.90
15241;DHT22;7723;52.170;9.978;2024-03-08T02:04:29;-0.70;99.90
15241;DHT22;7723;52.170;9.978;2024-03-08T02:06:59;-0.70;99.90
15241;DHT22;7723;52.170;9.978;2024-03-08T02:09:26;-0.80;99.90
15241;DHT22;7723;52.170;9.978;2024-03-08T02:11:53;-0.80;99.90
15241;DHT22;7723;52.170;9.978;2024-03-08T02:14:21;-0.80;99.90
15241;DHT22;7723;52.170;9.978;2024-03-08T02:16:49;-0.90;99.90
15241;DHT22;7723;52.170;9.978;2024-03-08T02:19:17;-0.80;99.90
15241;DHT22;7723;52.170;9.978;2024-03-08T02:21:46;-0.80;99.90
15241;DHT22;7723;52.170;9.978;2024-03-08T02:24:14;-0.80;99.90
15241;DHT22;7723;52.170;9.978;2024-03-08T02:26:41;-0.80;99.90
15241;DHT22;7723;52.170;9.978;2024-03-08T02:29:09;-0.70;99.90
15241;DHT22;7723;52.170;9.978;2024-03-08T02:31:36;-0.70;99.90
15241;DHT22;7723;52.170;9.978;2024-03-08T02:34:05;-0.80;99.90
15241;DHT22;7723;52.170;9.978;2024-03-08T02:36:32;-0.70;99.90
15241;DHT22;7723;52.170;9.978;2024-03-08T02:39:02;-0.70;99.90
15241;DHT22;7723;52.170;9.978;2024-03-08T02:41:31;-0.70;99.90
15241;DHT22;7723;52.170;9.978;2024-03-08T02:43:58;-0.70;99.90
15241;DHT22;7723;52.170;9.978;2024-03-08T02:46:25;-0.70;99.90
15241;DHT22;7723;52.170;9.978;2024-03-08T02:48:52;-0.70;99.90
15241;DHT22;7723;52.170;9.978;2024-03-08T02:51:19;-0.70;99.90
15241;DHT22;7723;52.170;9.978;2024-03-08T02:53:47;-0.70;99.90
15241;DHT22;7723;52.170;9.978;2024-03-08T02:56:18;-0.70;99.90
15241;DHT22;7723;52.170;9.978;2024-03-08T02:58:47;-0.70;99.90
15241;DHT22;7723;52.170;9.978;2024-03-08T03:01:14;-0.70;99.90
15241;DHT22;7723;52.170;9.978;2024-03-08T03:03:41;-0.60;99.90
15241;DHT22;7723;52.170;9.978;2024-03-08T03:06:09;-0.70;99.90
15241;DHT22;7723;52.170;9.978;2024-03-08T03:08:36;-0.80;99.90
15241;DHT22;7723;52.170;9.978;2024-03-08T03:11:04;-0.70;99.90
15241;DHT22;7723;52.170;9.978;2024-03-08T03:13:32;-0.70;99.90
15241;DHT22;7723;52.170;9.978;2024-03-08T03:15:59;-0.70;99.90
15241;DHT22;7723;52.170;9.978;2024-03-08T03:18:27;-0.80;99.90
15241;DHT22;7723;52.170;9.978;2024-03-08T03:20:54;-0.80;99.90
15241;DHT22;7723;52.170;9.978;2024-03-08T03:23:21;-0.90;99.90
15241;DHT22;7723;52.170;9.978;2024-03-08T03:25:48;-0.90;99.90
15241;DHT22;7723;52.170;9.978;2024-03-08T03:28:17;-1.00;99.90
15241;DHT22;7723;52.170;9.978;2024-03-08T03:30:48;-1.00;99.90
15241;DHT22;7723;52.170;9.978;2024-03-08T03:33:16;-1.00;99.90
15241;DHT22;7723;52.170;9.978;2024-03-08T03:35:43;-1.00;99.90
15241;DHT22;7723;52.170;9.978;2024-03-08T03:38:11;-1.00;99.90
15241;DHT22;7723;52.170;9.978;2024-03-08T03:40:40;-1.00;99.90
15241;DHT22;7723;52.170;9.978;2024-03-08T03:43:07;-1.10;99.90
15241;DHT22;7723;52.170;9.978;2024-03-08T03:45:36;-1.10;99.90
15241;DHT22;7723;52.170;9.978;2024-03-08T03:48:06;-1.10;99.90
15241;DHT22;7723;52.170;9.978;2024-03-08T03:50:34;-1.10;99.90
15241;DHT22;7723;52.170;9.978;2024-03-08T03:53:03;-1.20;99.90
15241;DHT22;7723;52.170;9.978;2024-03-08T03:55:30;-1.20;99.90
15241;DHT22;7723;52.170;9.978;2024-03-08T03:57:57;-1.20;99.90
15241;DHT22;7723;52.170;9.978;2024-03-08T04:00:26;-1.20;99.90
15241;DHT22;7723;52.170;9.978;2024-03-08T04:02:54;-1.40;99.90
15241;DHT22;7723;52.170;9.978;2024-03-08T04:05:26;-1.30;99.90
15241;DHT22;7723;52.170;9.978;2024-03-08T04:07:53;-1.30;99.90
15241;DHT22;7723;52.170;9.978;2024-03-08T04:10:20;-1.30;99.90
15241;DHT22;7723;52.170;9.978;2024-03-08T04:12:47;-1.30;99.90
15241;DHT22;7723;52.170;9.978;2024-03-08T04:15:14;-1.10;99.90
15241;DHT22;7723;52.170;9.978;2024-03-08T04:17:41;-1.10;99.90
15241;DHT22;7723;52.170;9.978;2024-03-08T04:20:09;-1.10;99.90
15241;DHT22;7723;52.170;9.978;2024-03-08T04:22:41;-1.10;99.90
15241;DHT22;7723;52.170;9.978;2024-03-08T04:25:09;-1.10;99.90
15241;DHT22;7723;52.170;9.978;2024-03-08T04:27:36;-1.20;99.90
15241;DHT22;7723;52.170;9.978;2024-03-08T04:30:04;-1.20;99.90
15241;DHT22;7723;52.170;9.978;2024-03-08T04:32:33;-1.20;99.90
15241;DHT22;7723;52.170;9.978;2024-03-08T04:35:00;-1.10;99.90
15241;DHT22;7723;52.170;9.978;2024-03-08T04:37:29;-1.30;99.90
15241;DHT22;7723;52.170;9.978;2024-03-08T04:39:57;-1.30;99.90
15241;DHT22;7723;52.170;9.978;2024-03-08T04:42:25;-1.20;99.90
15241;DHT22;7723;52.170;9.978;2024-03-08T04:44:54;-1.20;99.90
15241;DHT22;7723;52.170;9.978;2024-03-08T04:47:21;-1.20;99.90
15241;DHT22;7723;52.170;9.978;2024-03-08T04:49:48;-1.20;99.90
15241;DHT22;7723;52.170;9.978;2024-03-08T04:52:16;-1.10;99.90
15241;DHT22;7723;52.170;9.978;2024-03-08T04:54:43;-0.90;99.90
15241;DHT22;7723;52.170;9.978;2024-03-08T04:57:12;-1.20;99.90
15241;DHT22;7723;52.170;9.978;2024-03-08T04:59:39;-1.30;99.90
15241;DHT22;7723;52.170;9.978;2024-03-08T05:02:07;-1.30;99.90
15241;DHT22;7723;52.170;9.978;2024-03-08T05:04:34;-1.20;99.90
15241;DHT22;7723;52.170;9.978;2024-03-08T05:07:01;-1.20;99.90
15241;DHT22;7723;52.170;9.978;2024-03-08T05:09:29;-1.20;99.90
15241;DHT22;7723;52.170;9.978;2024-03-08T05:11:57;-1.30;99.90
15241;DHT22;7723;52.170;9.978;2024-03-08T05:14:27;-1.30;99.90
15241;DHT22;7723;52.170;9.978;2024-03-08T05:16:55;-1.30;99.90
15241;DHT22;7723;52.170;9.978;2024-03-08T05:19:22;-1.20;99.90
15241;DHT22;7723;52.170;9.978;2024-03-08T05:21:50;-1.20;99.90
15241;DHT22;7723;52.170;9.978;2024-03-08T05:24:17;-1.10;99.90
15241;DHT22;7723;52.170;9.978;2024-03-08T05:26:45;-1.00;99.90
15241;DHT22;7723;52.170;9.978;2024-03-08T05:29:13;-1.10;99.90
15241;DHT22;7723;52.170;9.978;2024-03-08T05:31:46;-1.10;99.90
15241;DHT22;7723;52.170;9.978;2024-03-08T05:34:14;-1.20;99.90
15241;DHT22;7723;52.170;9.978;2024-03-08T05:36:41;-1.10;99.90
15241;DHT22;7723;52.170;9.978;2024-03-08T05:39:10;-1.10;99.90
15241;DHT22;7723;52.170;9.978;2024-03-08T05:41:37;-1.10;99.90
15241;DHT22;7723;52.170;9.978;2024-03-08T05:44:05;-1.10;99.90
15241;DHT22;7723;52.170;9.978;2024-03-08T05:46:32;-1.10;99.90
15241;DHT22;7723;52.170;9.978;2024-03-08T05:49:00;-1.10;99.90
15241;DHT22;7723;52.170;9.978;2024-03-08T05:51:31;-1.00;99.90
15241;DHT22;7723;52.170;9.978;2024-03-08T05:54:01;-1.10;99.90
15241;DHT22;7723;52.170;9.978;2024-03-08T05:56:29;-1.10;99.90
15241;DHT22;7723;52.170;9.978;2024-03-08T05:58:56;-0.90;99.90
15241;DHT22;7723;52.170;9.978;2024-03-08T06:01:23;-1.10;99.90
15241;DHT22;7723;52.170;9.978;2024-03-08T06:03:51;-1.10;99.90
15241;DHT22;7723;52.170;9.978;2024-03-08T06:06:23;-1.20;99.90
15241;DHT22;7723;52.170;9.978;2024-03-08T06:08:50;-1.20;99.90
15241;DHT22;7723;52.170;9.978;2024-03-08T06:11:19;-1.10;99.90
15241;DHT22;7723;52.170;9.978;2024-03-08T06:13:46;-1.00;99.90
15241;DHT22;7723;52.170;9.978;2024-03-08T06:16:13;-1.00;99.90
15241;DHT22;7723;52.170;9.978;2024-03-08T06:18:40;-0.90;99.90
15241;DHT22;7723;52.170;9.978;2024-03-08T06:21:08;-1.00;99.90
15241;DHT22;7723;52.170;9.978;2024-03-08T06:23:38;-0.90;99.90
15241;DHT22;7723;52.170;9.978;2024-03-08T06:26:06;-0.90;99.90
15241;DHT22;7723;52.170;9.978;2024-03-08T06:28:33;-0.80;99.90
15241;DHT22;7723;52.170;9.978;2024-03-08T06:31:00;-0.70;99.90
15241;DHT22;7723;52.170;9.978;2024-03-08T06:33:28;-0.50;99.90
15241;DHT22;7723;52.170;9.978;2024-03-08T06:35:56;-0.50;99.90
15241;DHT22;7723;52.170;9.978;2024-03-08T06:38:23;-0.50;99.90
15241;DHT22;7723;52.170;9.978;2024-03-08T06:40:52;-0.40;99.90
15241;DHT22;7723;52.170;9.978;2024-03-08T06:43:20;-0.30;99.90
15241;DHT22;7723;52.170;9.978;2024-03-08T06:45:47;-0.20;99.90
15241;DHT22;7723;52.170;9.978;2024-03-08T06:48:15;0.00;99.90
15241;DHT22;7723;52.170;9.978;2024-03-08T06:50:43;0.30;99.90
15241;DHT22;7723;52.170;9.978;2024-03-08T06:53:10;0.60;99.90
15241;DHT22;7723;52.170;9.978;2024-03-08T06:55:38;0.80;99.90
15241;DHT22;7723;52.170;9.978;2024-03-08T06:58:07;1.10;99.90
15241;DHT22;7723;52.170;9.978;2024-03-08T07:00:36;1.30;99.90
15241;DHT22;7723;52.170;9.978;2024-03-08T07:03:03;1.40;99.90
15241;DHT22;7723;52.170;9.978;2024-03-08T07:05:38;1.70;99.90
15241;DHT22;7723;52.170;9.978;2024-03-08T07:08:06;2.20;99.90
15241;DHT22;7723;52.170;9.978;2024-03-08T07:10:33;2.30;99.90
15241;DHT22;7723;52.170;9.978;2024-03-08T07:13:01;2.60;99.90
15241;DHT22;7723;52.170;9.978;2024-03-08T07:15:30;2.90;99.90
15241;DHT22;7723;52.170;9.978;2024-03-08T07:17:58;2.80;99.90
15241;DHT22;7723;52.170;9.978;2024-03-08T07:20:25;2.60;96.60
15241;DHT22;7723;52.170;9.978;2024-03-08T07:22:52;2.60;93.40
15241;DHT22;7723;52.170;9.978;2024-03-08T07:25:19;2.70;47.30
15241;DHT22;7723;52.170;9.978;2024-03-08T07:27:47;2.80;1.00
15241;DHT22;7723;52.170;9.978;2024-03-08T07:30:15;3.10;1.00
15241;DHT22;7723;52.170;9.978;2024-03-08T07:33:06;3.00;1.00
15241;DHT22;7723;52.170;9.978;2024-03-08T07:35:35;3.10;1.00
15241;DHT22;7723;52.170;9.978;2024-03-08T07:38:03;3.10;1.00
15241;DHT22;7723;52.170;9.978;2024-03-08T07:40:31;3.70;1.00
15241;DHT22;7723;52.170;9.978;2024-03-08T07:42:58;3.30;1.00
15241;DHT22;7723;52.170;9.978;2024-03-08T07:45:25;3.10;1.00
15241;DHT22;7723;52.170;9.978;2024-03-08T07:47:53;3.20;1.00
15241;DHT22;7723;52.170;9.978;2024-03-08T07:50:23;3.20;1.00
15241;DHT22;7723;52.170;9.978;2024-03-08T07:52:50;3.50;99.90
15241;DHT22;7723;52.170;9.978;2024-03-08T07:55:17;3.20;1.00
15241;DHT22;7723;52.170;9.978;2024-03-08T07:57:44;3.60;1.00
15241;DHT22;7723;52.170;9.978;2024-03-08T08:00:14;4.20;69.90
15241;DHT22;7723;52.170;9.978;2024-03-08T08:02:44;4.00;1.00
15241;DHT22;7723;52.170;9.978;2024-03-08T08:05:11;3.70;1.00
15241;DHT22;7723;52.170;9.978;2024-03-08T08:07:43;4.10;99.90
15241;DHT22;7723;52.170;9.978;2024-03-08T08:10:12;3.80;1.00
15241;DHT22;7723;52.170;9.978;2024-03-08T08:12:44;3.60;1.00
15241;DHT22;7723;52.170;9.978;2024-03-08T08:15:11;3.80;99.90
15241;DHT22;7723;52.170;9.978;2024-03-08T08:17:38;3.80;1.00
15241;DHT22;7723;52.170;9.978;2024-03-08T08:20:06;3.80;1.00
15241;DHT22;7723;52.170;9.978;2024-03-08T08:22:34;4.10;13.10
15241;DHT22;7723;52.170;9.978;2024-03-08T08:25:02;3.90;99.90
15241;DHT22;7723;52.170;9.978;2024-03-08T08:27:29;4.00;99.90
15241;DHT22;7723;52.170;9.978;2024-03-08T08:29:56;4.30;1.00
15241;DHT22;7723;52.170;9.978;2024-03-08T08:32:23;4.20;1.00
15241;DHT22;7723;52.170;9.978;2024-03-08T08:34:50;4.50;99.90
15241;DHT22;7723;52.170;9.978;2024-03-08T08:37:18;4.70;1.00
15241;DHT22;7723;52.170;9.978;2024-03-08T08:39:45;4.70;99.90
15241;DHT22;7723;52.170;9.978;2024-03-08T08:42:13;4.60;99.90
15241;DHT22;7723;52.170;9.978;2024-03-08T08:44:40;4.60;99.90
15241;DHT22;7723;52.170;9.978;2024-03-08T08:47:07;5.10;1.00
15241;DHT22;7723;52.170;9.978;2024-03-08T08:49:34;5.40;99.90
15241;DHT22;7723;52.170;9.978;2024-03-08T08:52:01;5.30;61.60
15241;DHT22;7723;52.170;9.978;2024-03-08T08:54:29;5.70;1.00
15241;DHT22;7723;52.170;9.978;2024-03-08T08:56:56;5.40;99.90
15241;DHT22;7723;52.170;9.978;2024-03-08T08:59:25;5.00;1.00
15241;DHT22;7723;52.170;9.978;2024-03-08T09:01:52;4.80;1.00
15241;DHT22;7723;52.170;9.978;2024-03-08T09:04:20;5.00;1.00
15241;DHT22;7723;52.170;9.978;2024-03-08T09:06:48;4.90;1.00
15241;DHT22;7723;52.170;9.978;2024-03-08T09:09:15;5.20;1.00
15241;DHT22;7723;52.170;9.978;2024-03-08T09:11:43;4.90;99.90
15241;DHT22;7723;52.170;9.978;2024-03-08T09:14:11;5.40;1.00
15241;DHT22;7723;52.170;9.978;2024-03-08T09:16:41;5.40;1.00
15241;DHT22;7723;52.170;9.978;2024-03-08T09:19:08;5.80;1.00
15241;DHT22;7723;52.170;9.978;2024-03-08T09:21:36;5.80;1.00
15241;DHT22;7723;52.170;9.978;2024-03-08T09:24:05;6.10;1.00
15241;DHT22;7723;52.170;9.978;2024-03-08T09:26:33;6.00;1.00
15241;DHT22;7723;52.170;9.978;2024-03-08T09:29:00;6.10;1.00
15241;DHT22;7723;52.170;9.978;2024-03-08T09:31:27;6.40;99.90
15241;DHT22;7723;52.170;9.978;2024-03-08T09:33:55;6.60;99.90
15241;DHT22;7723;52.170;9.978;2024-03-08T09:36:24;6.30;99.90
15241;DHT22;7723;52.170;9.978;2024-03-08T09:38:51;5.80;99.90
15241;DHT22;7723;52.170;9.978;2024-03-08T09:41:18;5.80;1.00
15241;DHT22;7723;52.170;9.978;2024-03-08T09:43:46;5.80;97.90
15241;DHT22;7723;52.170;9.978;2024-03-08T09:46:14;5.90;52.60
15241;DHT22;7723;52.170;9.978;2024-03-08T09:48:42;6.00;1.00
15241;DHT22;7723;52.170;9.978;2024-03-08T09:51:12;6.20;1.00
15241;DHT22;7723;52.170;9.978;2024-03-08T09:53:41;6.20;99.90
15241;DHT22;7723;52.170;9.978;2024-03-08T09:56:08;6.60;1.00
15241;DHT22;7723;52.170;9.978;2024-03-08T09:58:35;6.20;99.90
15241;DHT22;7723;52.170;9.978;2024-03-08T10:01:20;6.50;1.00
15241;DHT22;7723;52.170;9.978;2024-03-08T10:03:47;6.80;1.00
15241;DHT22;7723;52.170;9.978;2024-03-08T10:06:22;7.00;99.90
15241;DHT22;7723;52.170;9.978;2024-03-08T10:08:50;7.10;99.90
15241;DHT22;7723;52.170;9.978;2024-03-08T10:11:18;6.70;99.90
15241;DHT22;7723;52.170;9.978;2024-03-08T10:13:45;6.60;99.90
15241;DHT22;7723;52.170;9.978;2024-03-08T10:16:12;6.90;99.90
15241;DHT22;7723;52.170;9.978;2024-03-08T10:18:40;6.60;99.90
15241;DHT22;7723;52.170;9.978;2024-03-08T10:21:09;6.00;39.10
15241;DHT22;7723;52.170;9.978;2024-03-08T10:23:38;6.20;1.00
15241;DHT22;7723;52.170;9.978;2024-03-08T10:26:12;6.50;1.00
15241;DHT22;7723;52.170;9.978;2024-03-08T10:28:41;6.10;99.90
15241;DHT22;7723;52.170;9.978;2024-03-08T10:31:08;6.10;1.00
15241;DHT22;7723;52.170;9.978;2024-03-08T10:33:36;6.00;42.30
15241;DHT22;7723;52.170;9.978;2024-03-08T10:36:07;5.90;99.90
15241;DHT22;7723;52.170;9.978;2024-03-08T10:38:36;6.10;99.90
15241;DHT22;7723;52.170;9.978;2024-03-08T10:41:06;6.10;1.00
15241;DHT22;7723;52.170;9.978;2024-03-08T10:44:02;6.10;99.90
15241;DHT22;7723;52.170;9.978;2024-03-08T10:46:44;6.00;1.00
15241;DHT22;7723;52.170;9.978;2024-03-08T10:49:25;6.00;99.90
15241;DHT22;7723;52.170;9.978;2024-03-08T10:51:53;6.30;1.00
15241;DHT22;7723;52.170;9.978;2024-03-08T10:54:20;6.30;1.00
15241;DHT22;7723;52.170;9.978;2024-03-08T10:56:49;6.40;99.90
15241;DHT22;7723;52.170;9.978;2024-03-08T10:59:18;6.50;1.00
15241;DHT22;7723;52.170;9.978;2024-03-08T11:01:46;6.20;99.90
15241;DHT22;7723;52.170;9.978;2024-03-08T11:04:13;6.50;1.00
15241;DHT22;7723;52.170;9.978;2024-03-08T11:06:42;6.50;99.90
15241;DHT22;7723;52.170;9.978;2024-03-08T11:09:27;6.70;99.90
15241;DHT22;7723;52.170;9.978;2024-03-08T11:12:21;6.60;1.00
15241;DHT22;7723;52.170;9.978;2024-03-08T11:14:51;6.60;99.90
15241;DHT22;7723;52.170;9.978;2024-03-08T11:17:27;6.70;1.00
15241;DHT22;7723;52.170;9.978;2024-03-08T11:20:10;6.80;1.00
15241;DHT22;7723;52.170;9.978;2024-03-08T11:22:42;6.80;99.90
15241;DHT22;7723;52.170;9.978;2024-03-08T11:25:36;7.00;99.90
15241;DHT22;7723;52.170;9.978;2024-03-08T11:28:13;6.80;88.30
15241;DHT22;7723;52.170;9.978;2024-03-08T11:30:44;6.90;99.90
15241;DHT22;7723;52.170;9.978;2024-03-08T11:33:12;6.70;1.00
15241;DHT22;7723;52.170;9.978;2024-03-08T11:35:42;6.90;1.00
15241;DHT22;7723;52.170;9.978;2024-03-08T11:38:12;6.80;1.00
15241;DHT22;7723;52.170;9.978;2024-03-08T11:40:40;6.70;99.90
15241;DHT22;7723;52.170;9.978;2024-03-08T11:43:09;6.90;1.00
15241;DHT22;7723;52.170;9.978;2024-03-08T11:45:37;6.80;99.90
15241;DHT22;7723;52.170;9.978;2024-03-08T11:48:06;6.90;1.00
15241;DHT22;7723;52.170;9.978;2024-03-08T11:50:34;6.90;99.90
15241;DHT22;7723;52.170;9.978;2024-03-08T11:53:02;6.80;99.90
15241;DHT22;7723;52.170;9.978;2024-03-08T11:55:29;6.90;1.00
15241;DHT22;7723;52.170;9.978;2024-03-08T11:58:04;6.90;1.00
15241;DHT22;7723;52.170;9.978;2024-03-08T12:00:35;7.00;1.00
15241;DHT22;7723;52.170;9.978;2024-03-08T12:03:05;6.90;1.00
15241;DHT22;7723;52.170;9.978;2024-03-08T12:05:32;7.00;99.90
15241;DHT22;7723;52.170;9.978;2024-03-08T12:08:00;7.00;1.00
15241;DHT22;7723;52.170;9.978;2024-03-08T12:10:28;7.10;99.90
15241;DHT22;7723;52.170;9.978;2024-03-08T12:12:58;7.10;99.90
15241;DHT22;7723;52.170;9.978;2024-03-08T12:15:26;6.90;1.00
15241;DHT22;7723;52.170;9.978;2024-03-08T12:17:55;7.10;99.90
15241;DHT22;7723;52.170;9.978;2024-03-08T12:20:24;7.00;1.00
15241;DHT22;7723;52.170;9.978;2024-03-08T12:22:53;7.10;92.80
15241;DHT22;7723;52.170;9.978;2024-03-08T12:25:25;7.10;1.00
15241;DHT22;7723;52.170;9.978;2024-03-08T12:27:52;6.90;1.00
15241;DHT22;7723;52.170;9.978;2024-03-08T12:30:23;7.00;1.00
15241;DHT22;7723;52.170;9.978;2024-03-08T12:32:55;7.00;1.00
15241;DHT22;7723;52.170;9.978;2024-03-08T12:35:24;7.20;1.00
15241;DHT22;7723;52.170;9.978;2024-03-08T12:37:54;7.10;1.00
15241;DHT22;7723;52.170;9.978;2024-03-08T12:40:26;7.20;1.00
15241;DHT22;7723;52.170;9.978;2024-03-08T12:42:58;7.30;1.00
15241;DHT22;7723;52.170;9.978;2024-03-08T12:45:25;7.20;99.90
15241;DHT22;7723;52.170;9.978;2024-03-08T12:47:55;7.30;1.00
15241;DHT22;7723;52.170;9.978;2024-03-08T12:50:22;7.30;1.00
15241;DHT22;7723;52.170;9.978;2024-03-08T12:52:50;7.20;99.90
15241;DHT22;7723;52.170;9.978;2024-03-08T12:55:18;7.40;99.90
15241;DHT22;7723;52.170;9.978;2024-03-08T12:57:46;7.50;1.00
15241;DHT22;7723;52.170;9.978;2024-03-08T13:00:13;7.50;99.90
15241;DHT22;7723;52.170;9.978;2024-03-08T13:02:44;7.50;1.00
15241;DHT22;7723;52.170;9.978;2024-03-08T13:05:13;7.50;99.90
15241;DHT22;7723;52.170;9.978;2024-03-08T13:07:41;7.70;1.00
15241;DHT22;7723;52.170;9.978;2024-03-08T13:10:11;7.80;99.90
15241;DHT22;7723;52.170;9.978;2024-03-08T13:12:40;7.80;99.90
15241;DHT22;7723;52.170;9.978;2024-03-08T13:15:08;7.70;99.90
15241;DHT22;7723;52.170;9.978;2024-03-08T13:17:37;7.70;1.00
15241;DHT22;7723;52.170;9.978;2024-03-08T13:20:07;7.60;1.00
15241;DHT22;7723;52.170;9.978;2024-03-08T13:22:36;7.60;72.20
15241;DHT22;7723;52.170;9.978;2024-03-08T13:25:03;7.60;1.00
15241;DHT22;7723;52.170;9.978;2024-03-08T13:27:31;7.60;1.00
15241;DHT22;7723;52.170;9.978;2024-03-08T13:30:03;7.70;1.00
15241;DHT22;7723;52.170;9.978;2024-03-08T13:32:30;7.60;1.00
15241;DHT22;7723;52.170;9.978;2024-03-08T13:34:58;7.80;1.00
15241;DHT22;7723;52.170;9.978;2024-03-08T13:37:25;7.90;1.00
15241;DHT22;7723;52.170;9.978;2024-03-08T13:39:54;7.90;16.20
15241;DHT22;7723;52.170;9.978;2024-03-08T13:42:21;7.80;1.00
15241;DHT22;7723;52.170;9.978;2024-03-08T13:44:49;8.00;1.00
15241;DHT22;7723;52.170;9.978;2024-03-08T13:47:16;7.90;1.00
15241;DHT22;7723;52.170;9.978;2024-03-08T13:49:44;7.80;99.90
15241;DHT22;7723;52.170;9.978;2024-03-08T13:52:11;7.90;69.10
15241;DHT22;7723;52.170;9.978;2024-03-08T13:54:42;7.80;1.00
15241;DHT22;7723;52.170;9.978;2024-03-08T13:57:10;7.80;1.00
15241;DHT22;7723;52.170;9.978;2024-03-08T13:59:37;7.70;1.00
15241;DHT22;7723;52.170;9.978;2024-03-08T14:02:05;7.80;99.90
15241;DHT22;7723;52.170;9.978;2024-03-08T14:04:32;8.00;99.90
15241;DHT22;7723;52.170;9.978;2024-03-08T14:07:00;8.00;99.90
15241;DHT22;7723;52.170;9.978;2024-03-08T14:09:30;8.00;16.20
15241;DHT22;7723;52.170;9.978;2024-03-08T14:11:57;7.90;1.00
15241;DHT22;7723;52.170;9.978;2024-03-08T14:14:26;7.80;48.40
15241;DHT22;7723;52.170;9.978;2024-03-08T14:16:55;7.80;99.90
15241;DHT22;7723;52.170;9.978;2024-03-08T14:19:24;7.80;99.90
15241;DHT22;7723;52.170;9.978;2024-03-08T14:21:51;7.80;99.90
15241;DHT22;7723;52.170;9.978;2024-03-08T14:24:19;7.80;99.90
15241;DHT22;7723;52.170;9.978;2024-03-08T14:26:46;7.80;99.90
15241;DHT22;7723;52.170;9.978;2024-03-08T14:29:14;7.80;1.00
15241;DHT22;7723;52.170;9.978;2024-03-08T14:31:43;7.80;90.90
15241;DHT22;7723;52.170;9.978;2024-03-08T14:34:10;7.80;98.10
15241;DHT22;7723;52.170;9.978;2024-03-08T14:36:40;7.90;99.90
15241;DHT22;7723;52.170;9.978;2024-03-08T14:39:07;7.90;99.90
15241;DHT22;7723;52.170;9.978;2024-03-08T14:41:34;7.80;52.50
15241;DHT22;7723;52.170;9.978;2024-03-08T14:44:01;7.80;1.00
15241;DHT22;7723;52.170;9.978;2024-03-08T14:46:28;7.80;24.40
15241;DHT22;7723;52.170;9.978;2024-03-08T14:48:57;7.80;99.90
15241;DHT22;7723;52.170;9.978;2024-03-08T14:51:25;7.70;51.20
15241;DHT22;7723;52.170;9.978;2024-03-08T14:53:53;7.60;1.00
15241;DHT22;7723;52.170;9.978;2024-03-08T14:56:21;7.60;5.50
15241;DHT22;7723;52.170;9.978;2024-03-08T14:58:53;7.70;99.90
15241;DHT22;7723;52.170;9.978;2024-03-08T15:01:21;7.70;99.90
15241;DHT22;7723;52.170;9.978;2024-03-08T15:03:53;7.80;99.90
15241;DHT22;7723;52.170;9.978;2024-03-08T15:06:22;7.70;1.00
15241;DHT22;7723;52.170;9.978;2024-03-08T15:08:50;7.60;1.00
15241;DHT22;7723;52.170;9.978;2024-03-08T15:11:17;7.60;1.00
15241;DHT22;7723;52.170;9.978;2024-03-08T15:13:47;7.60;1.00
15241;DHT22;7723;52.170;9.978;2024-03-08T15:16:17;7.60;58.40
15241;DHT22;7723;52.170;9.978;2024-03-08T15:18:44;7.60;1.00
15241;DHT22;7723;52.170;9.978;2024-03-08T15:21:14;7.60;99.90
15241;DHT22;7723;52.170;9.978;2024-03-08T15:23:46;7.60;22.00
15241;DHT22;7723;52.170;9.978;2024-03-08T15:26:16;7.60;99.90
15241;DHT22;7723;52.170;9.978;2024-03-08T15:28:43;7.60;99.90
15241;DHT22;7723;52.170;9.978;2024-03-08T15:31:11;7.50;1.00
15241;DHT22;7723;52.170;9.978;2024-03-08T15:33:39;7.50;99.90
15241;DHT22;7723;52.170;9.978;2024-03-08T15:36:10;7.50;99.90
15241;DHT22;7723;52.170;9.978;2024-03-08T15:38:40;7.50;99.90
15241;DHT22;7723;52.170;9.978;2024-03-08T15:41:08;7.50;99.90
15241;DHT22;7723;52.170;9.978;2024-03-08T15:43:37;7.50;99.90
15241;DHT22;7723;52.170;9.978;2024-03-08T15:46:05;7.50;99.90
15241;DHT22;7723;52.170;9.978;2024-03-08T15:48:32;7.40;99.90
15241;DHT22;7723;52.170;9.978;2024-03-08T15:51:01;7.40;99.90
15241;DHT22;7723;52.170;9.978;2024-03-08T15:53:30;7.40;99.90
15241;DHT22;7723;52.170;9.978;2024-03-08T15:55:58;7.40;1.00
15241;DHT22;7723;52.170;9.978;2024-03-08T15:58:26;7.40;99.90
15241;DHT22;7723;52.170;9.978;2024-03-08T16:00:53;7.30;99.90
15241;DHT22;7723;52.170;9.978;2024-03-08T16:03:22;7.30;1.00
15241;DHT22;7723;52.170;9.978;2024-03-08T16:05:49;7.30;1.00
15241;DHT22;7723;52.170;9.978;2024-03-08T16:08:18;7.20;1.00